Accueil
METAR-TAF:

METAR-TAF

Aéroports :

Base aérienne de Coxyde

Coxyde, Belgique

latitude: 51-05N, longitude: 002-39E, altitude: 4 m

Observation

Le bulletin a été fait il y a 25 minutes, à 15:25 UTC
Vent 14 kt de nord
Température 15°C
Humidité 59%
Pression 1027 hPa
Visibilité 10 km ou plus

METAR: EBFN 211525Z AUTO 36014KT 9999 FEW026/// 15/07 Q1027 BLU

Heure: 17:50 (15:50 UTC)

Prévision

Le bulletin a été fait il y a 4 heures et 9 minutes, à 11:41 UTC
Prévision valable du 21 à 13 UTC au 21 à 22 UTC
Vent 12 kt de nord avec des rafales jusqu'à 22 kt
Visibilité 10 km ou plus
Quelques nuages à une hauteur de 3000 ft

TAF: EBFN 211141Z 2113/2122 35012G22KT 9999 FEW030

Observations et prévisions météorologiques de plus de 4000 aéroports (messages METAR et TAF).

Les stations disponibles sont représentées par des disques jaunes et rouges sur la carte.

Passer la souris dessus pour voir le nom de la station.

Cliquer dessus pour voir les observations et prévisions météorologiques.

Pour changer de carte: cliquez sur les boutons verts avec une croix noire pour zoomer, sur le bouton vert avec un tiret pour effectuer un zoom arrière, ou sur les flèches vertes pour les cartes adjacentes.


METAR-TAF: